sensor_id;sensor_type;location;lat;lon;timestamp;P1;durP1;ratioP1;P2;durP2;ratioP2
6197;SDS011;3132;42.622;23.328;2023-07-16T00:02:06;21.77;;;15.80;;
6197;SDS011;3132;42.622;23.328;2023-07-16T00:04:32;18.70;;;16.98;;
6197;SDS011;3132;42.622;23.328;2023-07-16T00:06:59;19.55;;;17.52;;
6197;SDS011;3132;42.622;23.328;2023-07-16T00:09:25;18.60;;;15.90;;
6197;SDS011;3132;42.622;23.328;2023-07-16T00:11:51;22.25;;;17.73;;
6197;SDS011;3132;42.622;23.328;2023-07-16T00:14:17;19.63;;;17.42;;
6197;SDS011;3132;42.622;23.328;2023-07-16T00:16:42;19.13;;;17.38;;
6197;SDS011;3132;42.622;23.328;2023-07-16T00:19:10;20.33;;;18.17;;
6197;SDS011;3132;42.622;23.328;2023-07-16T00:21:36;19.85;;;17.75;;
6197;SDS011;3132;42.622;23.328;2023-07-16T00:24:02;17.70;;;15.85;;
6197;SDS011;3132;42.622;23.328;2023-07-16T00:26:28;20.90;;;18.42;;
6197;SDS011;3132;42.622;23.328;2023-07-16T00:28:53;19.55;;;17.60;;
6197;SDS011;3132;42.622;23.328;2023-07-16T00:31:19;20.73;;;17.77;;
6197;SDS011;3132;42.622;23.328;2023-07-16T00:33:44;20.05;;;17.75;;
6197;SDS011;3132;42.622;23.328;2023-07-16T00:36:10;19.70;;;17.80;;
6197;SDS011;3132;42.622;23.328;2023-07-16T00:38:35;20.67;;;18.52;;
6197;SDS011;3132;42.622;23.328;2023-07-16T00:41:00;19.75;;;17.85;;
6197;SDS011;3132;42.622;23.328;2023-07-16T00:43:26;20.08;;;18.13;;
6197;SDS011;3132;42.622;23.328;2023-07-16T00:45:51;21.27;;;17.60;;
6197;SDS011;3132;42.622;23.328;2023-07-16T00:48:16;20.15;;;18.08;;
6197;SDS011;3132;42.622;23.328;2023-07-16T00:50:43;20.58;;;18.45;;
6197;SDS011;3132;42.622;23.328;2023-07-16T00:53:09;21.38;;;18.48;;
6197;SDS011;3132;42.622;23.328;2023-07-16T00:55:36;21.15;;;18.05;;
6197;SDS011;3132;42.622;23.328;2023-07-16T00:58:03;18.50;;;16.75;;
6197;SDS011;3132;42.622;23.328;2023-07-16T01:00:31;20.83;;;18.75;;
6197;SDS011;3132;42.622;23.328;2023-07-16T01:02:57;25.17;;;17.65;;
6197;SDS011;3132;42.622;23.328;2023-07-16T01:05:23;19.38;;;17.40;;
6197;SDS011;3132;42.622;23.328;2023-07-16T01:07:58;19.77;;;17.77;;
6197;SDS011;3132;42.622;23.328;2023-07-16T01:10:27;20.77;;;18.65;;
6197;SDS011;3132;42.622;23.328;2023-07-16T01:12:54;19.92;;;18.02;;
6197;SDS011;3132;42.622;23.328;2023-07-16T01:15:21;20.25;;;18.35;;
6197;SDS011;3132;42.622;23.328;2023-07-16T01:17:47;19.65;;;17.55;;
6197;SDS011;3132;42.622;23.328;2023-07-16T01:20:12;21.40;;;18.20;;
6197;SDS011;3132;42.622;23.328;2023-07-16T01:23:22;18.65;;;16.75;;
6197;SDS011;3132;42.622;23.328;2023-07-16T01:30:56;18.80;;;16.90;;
6197;SDS011;3132;42.622;23.328;2023-07-16T01:33:23;21.08;;;18.88;;
6197;SDS011;3132;42.622;23.328;2023-07-16T01:35:50;18.73;;;16.80;;
6197;SDS011;3132;42.622;23.328;2023-07-16T01:38:16;20.80;;;18.60;;
6197;SDS011;3132;42.622;23.328;2023-07-16T01:40:43;20.92;;;17.42;;
6197;SDS011;3132;42.622;23.328;2023-07-16T01:43:09;19.52;;;17.63;;
6197;SDS011;3132;42.622;23.328;2023-07-16T01:45:35;20.80;;;18.60;;
6197;SDS011;3132;42.622;23.328;2023-07-16T01:50:47;20.85;;;18.27;;
6197;SDS011;3132;42.622;23.328;2023-07-16T01:53:12;20.25;;;18.23;;
6197;SDS011;3132;42.622;23.328;2023-07-16T01:55:38;20.42;;;18.27;;
6197;SDS011;3132;42.622;23.328;2023-07-16T01:58:03;20.73;;;18.45;;
6197;SDS011;3132;42.622;23.328;2023-07-16T02:00:30;22.58;;;19.50;;
6197;SDS011;3132;42.622;23.328;2023-07-16T02:02:56;21.42;;;19.13;;
6197;SDS011;3132;42.622;23.328;2023-07-16T02:05:21;21.85;;;19.45;;
6197;SDS011;3132;42.622;23.328;2023-07-16T02:07:46;20.17;;;18.00;;
6197;SDS011;3132;42.622;23.328;2023-07-16T02:10:12;21.08;;;18.77;;
6197;SDS011;3132;42.622;23.328;2023-07-16T02:12:37;20.23;;;18.25;;
6197;SDS011;3132;42.622;23.328;2023-07-16T02:15:02;24.38;;;19.73;;
6197;SDS011;3132;42.622;23.328;2023-07-16T02:17:28;20.65;;;18.52;;
6197;SDS011;3132;42.622;23.328;2023-07-16T02:19:53;20.63;;;18.67;;
6197;SDS011;3132;42.622;23.328;2023-07-16T02:22:19;20.98;;;18.77;;
6197;SDS011;3132;42.622;23.328;2023-07-16T02:24:45;22.75;;;17.77;;
6197;SDS011;3132;42.622;23.328;2023-07-16T02:27:10;21.15;;;18.90;;
6197;SDS011;3132;42.622;23.328;2023-07-16T02:29:35;22.02;;;19.85;;
6197;SDS011;3132;42.622;23.328;2023-07-16T02:32:01;20.90;;;18.80;;
6197;SDS011;3132;42.622;23.328;2023-07-16T02:34:26;22.15;;;19.83;;
6197;SDS011;3132;42.622;23.328;2023-07-16T02:36:52;28.50;;;18.55;;
6197;SDS011;3132;42.622;23.328;2023-07-16T02:39:17;25.92;;;19.85;;
6197;SDS011;3132;42.622;23.328;2023-07-16T02:41:42;19.52;;;17.63;;
6197;SDS011;3132;42.622;23.328;2023-07-16T02:44:08;20.67;;;18.70;;
6197;SDS011;3132;42.622;23.328;2023-07-16T02:46:34;21.42;;;19.23;;
6197;SDS011;3132;42.622;23.328;2023-07-16T02:48:59;20.48;;;18.48;;
6197;SDS011;3132;42.622;23.328;2023-07-16T02:51:25;21.50;;;19.23;;
6197;SDS011;3132;42.622;23.328;2023-07-16T02:53:50;23.05;;;18.92;;
6197;SDS011;3132;42.622;23.328;2023-07-16T02:56:16;22.92;;;19.08;;
6197;SDS011;3132;42.622;23.328;2023-07-16T02:58:41;21.05;;;18.85;;
6197;SDS011;3132;42.622;23.328;2023-07-16T03:01:07;24.13;;;19.45;;
6197;SDS011;3132;42.622;23.328;2023-07-16T03:03:32;21.25;;;19.13;;
6197;SDS011;3132;42.622;23.328;2023-07-16T03:05:58;20.70;;;18.00;;
6197;SDS011;3132;42.622;23.328;2023-07-16T03:08:23;22.13;;;19.83;;
6197;SDS011;3132;42.622;23.328;2023-07-16T03:10:51;21.88;;;18.85;;
6197;SDS011;3132;42.622;23.328;2023-07-16T03:13:16;21.58;;;18.63;;
6197;SDS011;3132;42.622;23.328;2023-07-16T03:15:42;22.63;;;18.88;;
6197;SDS011;3132;42.622;23.328;2023-07-16T03:18:07;22.35;;;19.92;;
6197;SDS011;3132;42.622;23.328;2023-07-16T03:20:33;25.73;;;18.95;;
6197;SDS011;3132;42.622;23.328;2023-07-16T03:22:58;22.00;;;18.90;;
6197;SDS011;3132;42.622;23.328;2023-07-16T03:25:23;22.52;;;19.88;;
6197;SDS011;3132;42.622;23.328;2023-07-16T03:27:49;23.65;;;19.23;;
6197;SDS011;3132;42.622;23.328;2023-07-16T03:30:14;24.98;;;19.25;;
6197;SDS011;3132;42.622;23.328;2023-07-16T03:32:39;21.30;;;19.10;;
6197;SDS011;3132;42.622;23.328;2023-07-16T03:35:05;21.90;;;19.55;;
6197;SDS011;3132;42.622;23.328;2023-07-16T03:37:30;21.60;;;19.40;;
6197;SDS011;3132;42.622;23.328;2023-07-16T03:39:56;23.10;;;20.23;;
6197;SDS011;3132;42.622;23.328;2023-07-16T03:42:21;22.63;;;18.92;;
6197;SDS011;3132;42.622;23.328;2023-07-16T03:44:47;20.83;;;18.73;;
6197;SDS011;3132;42.622;23.328;2023-07-16T03:47:12;22.92;;;19.67;;
6197;SDS011;3132;42.622;23.328;2023-07-16T03:49:39;21.98;;;19.65;;
6197;SDS011;3132;42.622;23.328;2023-07-16T03:52:05;22.05;;;19.73;;
6197;SDS011;3132;42.622;23.328;2023-07-16T03:54:30;21.08;;;18.95;;
6197;SDS011;3132;42.622;23.328;2023-07-16T03:56:56;19.95;;;18.05;;
6197;SDS011;3132;42.622;23.328;2023-07-16T03:59:21;20.63;;;18.50;;
6197;SDS011;3132;42.622;23.328;2023-07-16T04:01:47;20.13;;;18.02;;
6197;SDS011;3132;42.622;23.328;2023-07-16T04:04:12;20.00;;;17.88;;
6197;SDS011;3132;42.622;23.328;2023-07-16T04:06:38;19.42;;;17.73;;
6197;SDS011;3132;42.622;23.328;2023-07-16T04:09:03;20.38;;;18.48;;
6197;SDS011;3132;42.622;23.328;2023-07-16T04:11:29;22.70;;;19.75;;
6197;SDS011;3132;42.622;23.328;2023-07-16T04:13:55;20.55;;;18.55;;
6197;SDS011;3132;42.622;23.328;2023-07-16T04:16:20;21.65;;;19.60;;
6197;SDS011;3132;42.622;23.328;2023-07-16T04:18:45;22.83;;;20.05;;
6197;SDS011;3132;42.622;23.328;2023-07-16T04:21:11;20.83;;;19.02;;
6197;SDS011;3132;42.622;23.328;2023-07-16T04:23:36;19.58;;;17.52;;
6197;SDS011;3132;42.622;23.328;2023-07-16T04:26:01;20.33;;;18.23;;
6197;SDS011;3132;42.622;23.328;2023-07-16T04:28:27;22.63;;;17.63;;
6197;SDS011;3132;42.622;23.328;2023-07-16T04:30:52;20.52;;;17.25;;
6197;SDS011;3132;42.622;23.328;2023-07-16T04:33:17;22.77;;;17.08;;
6197;SDS011;3132;42.622;23.328;2023-07-16T04:35:44;19.08;;;17.30;;
6197;SDS011;3132;42.622;23.328;2023-07-16T04:38:09;18.23;;;16.25;;
6197;SDS011;3132;42.622;23.328;2023-07-16T04:40:35;19.27;;;17.10;;
6197;SDS011;3132;42.622;23.328;2023-07-16T04:43:00;18.63;;;16.50;;
6197;SDS011;3132;42.622;23.328;2023-07-16T04:45:25;19.05;;;17.20;;
6197;SDS011;3132;42.622;23.328;2023-07-16T04:47:51;21.90;;;16.48;;
6197;SDS011;3132;42.622;23.328;2023-07-16T04:50:16;18.25;;;16.30;;
6197;SDS011;3132;42.622;23.328;2023-07-16T04:52:41;18.98;;;16.35;;
6197;SDS011;3132;42.622;23.328;2023-07-16T04:55:07;18.63;;;16.08;;
6197;SDS011;3132;42.622;23.328;2023-07-16T04:57:32;17.90;;;16.17;;
6197;SDS011;3132;42.622;23.328;2023-07-16T04:59:58;17.90;;;16.15;;
6197;SDS011;3132;42.622;23.328;2023-07-16T05:02:24;17.98;;;16.15;;
6197;SDS011;3132;42.622;23.328;2023-07-16T05:04:49;17.10;;;15.45;;
6197;SDS011;3132;42.622;23.328;2023-07-16T05:07:15;16.00;;;14.23;;
6197;SDS011;3132;42.622;23.328;2023-07-16T05:09:40;17.85;;;14.95;;
6197;SDS011;3132;42.622;23.328;2023-07-16T05:12:06;16.67;;;15.07;;
6197;SDS011;3132;42.622;23.328;2023-07-16T05:14:42;18.60;;;14.52;;
6197;SDS011;3132;42.622;23.328;2023-07-16T05:17:09;17.17;;;13.80;;
6197;SDS011;3132;42.622;23.328;2023-07-16T05:19:34;16.87;;;15.00;;
6197;SDS011;3132;42.622;23.328;2023-07-16T05:22:00;16.00;;;14.60;;
6197;SDS011;3132;42.622;23.328;2023-07-16T05:24:25;16.17;;;13.77;;
6197;SDS011;3132;42.622;23.328;2023-07-16T05:26:50;16.63;;;15.02;;
6197;SDS011;3132;42.622;23.328;2023-07-16T05:29:17;15.82;;;14.13;;
6197;SDS011;3132;42.622;23.328;2023-07-16T05:31:43;17.42;;;15.73;;
6197;SDS011;3132;42.622;23.328;2023-07-16T05:34:09;18.85;;;15.82;;
6197;SDS011;3132;42.622;23.328;2023-07-16T05:36:34;17.13;;;15.48;;
6197;SDS011;3132;42.622;23.328;2023-07-16T05:39:00;16.85;;;15.35;;
6197;SDS011;3132;42.622;23.328;2023-07-16T05:41:25;16.60;;;14.73;;
6197;SDS011;3132;42.622;23.328;2023-07-16T05:43:50;16.42;;;14.77;;
6197;SDS011;3132;42.622;23.328;2023-07-16T05:46:16;17.85;;;16.08;;
6197;SDS011;3132;42.622;23.328;2023-07-16T05:48:41;14.82;;;13.57;;
6197;SDS011;3132;42.622;23.328;2023-07-16T05:51:07;13.38;;;10.93;;
6197;SDS011;3132;42.622;23.328;2023-07-16T05:53:32;12.73;;;11.63;;
6197;SDS011;3132;42.622;23.328;2023-07-16T05:55:57;11.27;;;10.43;;
6197;SDS011;3132;42.622;23.328;2023-07-16T05:58:23;11.38;;;10.10;;
6197;SDS011;3132;42.622;23.328;2023-07-16T06:00:48;11.98;;;10.48;;
6197;SDS011;3132;42.622;23.328;2023-07-16T06:03:13;10.50;;;9.50;;
6197;SDS011;3132;42.622;23.328;2023-07-16T06:05:42;9.98;;;8.90;;
6197;SDS011;3132;42.622;23.328;2023-07-16T06:08:07;10.65;;;9.65;;
6197;SDS011;3132;42.622;23.328;2023-07-16T06:10:35;10.40;;;9.52;;
6197;SDS011;3132;42.622;23.328;2023-07-16T06:13:01;10.05;;;9.10;;
6197;SDS011;3132;42.622;23.328;2023-07-16T06:15:27;8.68;;;8.05;;
6197;SDS011;3132;42.622;23.328;2023-07-16T06:17:52;9.63;;;8.80;;
6197;SDS011;3132;42.622;23.328;2023-07-16T06:20:17;9.05;;;8.32;;
6197;SDS011;3132;42.622;23.328;2023-07-16T06:22:43;9.85;;;8.90;;
6197;SDS011;3132;42.622;23.328;2023-07-16T06:25:08;9.07;;;8.40;;
6197;SDS011;3132;42.622;23.328;2023-07-16T06:27:35;9.07;;;8.13;;
6197;SDS011;3132;42.622;23.328;2023-07-16T06:30:01;10.27;;;9.32;;
6197;SDS011;3132;42.622;23.328;2023-07-16T06:32:26;9.75;;;8.95;;
6197;SDS011;3132;42.622;23.328;2023-07-16T06:34:52;10.35;;;9.35;;
6197;SDS011;3132;42.622;23.328;2023-07-16T06:37:17;13.80;;;12.45;;
6197;SDS011;3132;42.622;23.328;2023-07-16T06:39:43;9.93;;;9.07;;
6197;SDS011;3132;42.622;23.328;2023-07-16T06:42:08;9.75;;;8.80;;
6197;SDS011;3132;42.622;23.328;2023-07-16T06:44:33;10.45;;;9.55;;
6197;SDS011;3132;42.622;23.328;2023-07-16T06:46:59;12.98;;;9.63;;
6197;SDS011;3132;42.622;23.328;2023-07-16T06:49:24;11.98;;;10.82;;
6197;SDS011;3132;42.622;23.328;2023-07-16T06:51:50;9.40;;;8.60;;
6197;SDS011;3132;42.622;23.328;2023-07-16T06:54:15;10.13;;;9.32;;
6197;SDS011;3132;42.622;23.328;2023-07-16T06:56:40;9.30;;;8.68;;
6197;SDS011;3132;42.622;23.328;2023-07-16T07:05:49;18.13;;;11.25;;
6197;SDS011;3132;42.622;23.328;2023-07-16T07:08:15;12.95;;;10.60;;
6197;SDS011;3132;42.622;23.328;2023-07-16T07:10:40;11.68;;;10.77;;
6197;SDS011;3132;42.622;23.328;2023-07-16T07:13:05;12.70;;;11.50;;
6197;SDS011;3132;42.622;23.328;2023-07-16T07:15:31;12.35;;;11.23;;
6197;SDS011;3132;42.622;23.328;2023-07-16T07:17:57;13.55;;;12.27;;
6197;SDS011;3132;42.622;23.328;2023-07-16T07:20:22;12.95;;;11.75;;
6197;SDS011;3132;42.622;23.328;2023-07-16T07:22:47;12.07;;;11.02;;
6197;SDS011;3132;42.622;23.328;2023-07-16T07:25:13;13.55;;;12.10;;
6197;SDS011;3132;42.622;23.328;2023-07-16T07:27:38;12.55;;;11.43;;
6197;SDS011;3132;42.622;23.328;2023-07-16T07:30:04;13.35;;;11.13;;
6197;SDS011;3132;42.622;23.328;2023-07-16T07:32:29;12.88;;;11.98;;
6197;SDS011;3132;42.622;23.328;2023-07-16T07:34:55;16.40;;;12.88;;
6197;SDS011;3132;42.622;23.328;2023-07-16T07:37:20;15.27;;;12.48;;
6197;SDS011;3132;42.622;23.328;2023-07-16T07:39:48;12.13;;;11.02;;
6197;SDS011;3132;42.622;23.328;2023-07-16T07:42:16;12.68;;;11.45;;
6197;SDS011;3132;42.622;23.328;2023-07-16T07:44:42;13.93;;;12.10;;
6197;SDS011;3132;42.622;23.328;2023-07-16T07:47:07;13.70;;;12.30;;
6197;SDS011;3132;42.622;23.328;2023-07-16T07:49:33;13.40;;;12.13;;
6197;SDS011;3132;42.622;23.328;2023-07-16T07:51:59;14.40;;;11.77;;
6197;SDS011;3132;42.622;23.328;2023-07-16T07:54:25;14.52;;;13.10;;
6197;SDS011;3132;42.622;23.328;2023-07-16T07:56:50;12.27;;;11.20;;
6197;SDS011;3132;42.622;23.328;2023-07-16T07:59:15;12.85;;;11.75;;
6197;SDS011;3132;42.622;23.328;2023-07-16T08:01:41;15.77;;;13.48;;
6197;SDS011;3132;42.622;23.328;2023-07-16T08:04:06;13.82;;;12.73;;
6197;SDS011;3132;42.622;23.328;2023-07-16T08:06:32;14.05;;;12.85;;
6197;SDS011;3132;42.622;23.328;2023-07-16T08:08:57;13.60;;;12.40;;
6197;SDS011;3132;42.622;23.328;2023-07-16T08:11:22;14.07;;;12.73;;
6197;SDS011;3132;42.622;23.328;2023-07-16T08:13:48;15.45;;;13.88;;
6197;SDS011;3132;42.622;23.328;2023-07-16T08:16:14;15.75;;;14.15;;
6197;SDS011;3132;42.622;23.328;2023-07-16T08:18:39;16.30;;;13.27;;
6197;SDS011;3132;42.622;23.328;2023-07-16T08:21:05;15.45;;;13.85;;
6197;SDS011;3132;42.622;23.328;2023-07-16T08:23:30;15.00;;;13.60;;
6197;SDS011;3132;42.622;23.328;2023-07-16T08:25:56;13.90;;;12.30;;
6197;SDS011;3132;42.622;23.328;2023-07-16T08:28:21;13.85;;;12.45;;
6197;SDS011;3132;42.622;23.328;2023-07-16T08:30:47;16.27;;;13.48;;
6197;SDS011;3132;42.622;23.328;2023-07-16T08:33:15;14.70;;;13.20;;
6197;SDS011;3132;42.622;23.328;2023-07-16T08:35:41;15.57;;;14.10;;
6197;SDS011;3132;42.622;23.328;2023-07-16T08:38:07;15.93;;;14.32;;
6197;SDS011;3132;42.622;23.328;2023-07-16T08:40:36;15.57;;;13.82;;
6197;SDS011;3132;42.622;23.328;2023-07-16T08:43:03;13.63;;;12.48;;
6197;SDS011;3132;42.622;23.328;2023-07-16T08:45:31;16.42;;;13.70;;
6197;SDS011;3132;42.622;23.328;2023-07-16T08:48:04;15.75;;;14.35;;
6197;SDS011;3132;42.622;23.328;2023-07-16T08:50:30;16.65;;;14.02;;
6197;SDS011;3132;42.622;23.328;2023-07-16T08:52:57;15.07;;;13.55;;
6197;SDS011;3132;42.622;23.328;2023-07-16T08:55:23;13.95;;;12.63;;
6197;SDS011;3132;42.622;23.328;2023-07-16T08:57:48;14.45;;;13.15;;
6197;SDS011;3132;42.622;23.328;2023-07-16T09:00:15;13.90;;;12.52;;
6197;SDS011;3132;42.622;23.328;2023-07-16T09:02:41;13.88;;;12.48;;
6197;SDS011;3132;42.622;23.328;2023-07-16T09:05:07;15.32;;;13.75;;
6197;SDS011;3132;42.622;23.328;2023-07-16T09:07:35;14.00;;;12.73;;
6197;SDS011;3132;42.622;23.328;2023-07-16T09:10:01;15.05;;;13.60;;
6197;SDS011;3132;42.622;23.328;2023-07-16T09:12:27;15.77;;;13.98;;
6197;SDS011;3132;42.622;23.328;2023-07-16T09:14:53;14.27;;;12.68;;
6197;SDS011;3132;42.622;23.328;2023-07-16T09:17:22;14.63;;;13.07;;
6197;SDS011;3132;42.622;23.328;2023-07-16T09:19:49;16.40;;;14.65;;
6197;SDS011;3132;42.622;23.328;2023-07-16T09:22:16;13.77;;;12.60;;
6197;SDS011;3132;42.622;23.328;2023-07-16T09:24:44;14.27;;;13.07;;
6197;SDS011;3132;42.622;23.328;2023-07-16T09:27:13;14.73;;;13.07;;
6197;SDS011;3132;42.622;23.328;2023-07-16T09:29:39;14.85;;;13.60;;
6197;SDS011;3132;42.622;23.328;2023-07-16T09:32:05;15.23;;;13.85;;
6197;SDS011;3132;42.622;23.328;2023-07-16T09:34:31;15.00;;;13.50;;
6197;SDS011;3132;42.622;23.328;2023-07-16T09:36:56;14.27;;;12.77;;
6197;SDS011;3132;42.622;23.328;2023-07-16T09:39:23;14.65;;;13.30;;
6197;SDS011;3132;42.622;23.328;2023-07-16T09:41:50;14.57;;;13.18;;
6197;SDS011;3132;42.622;23.328;2023-07-16T09:44:16;13.63;;;12.52;;
6197;SDS011;3132;42.622;23.328;2023-07-16T09:46:43;13.57;;;12.43;;
6197;SDS011;3132;42.622;23.328;2023-07-16T09:49:09;14.02;;;12.57;;
6197;SDS011;3132;42.622;23.328;2023-07-16T09:51:36;14.48;;;13.10;;
6197;SDS011;3132;42.622;23.328;2023-07-16T09:54:03;13.15;;;12.02;;
6197;SDS011;3132;42.622;23.328;2023-07-16T09:56:33;14.32;;;13.20;;
6197;SDS011;3132;42.622;23.328;2023-07-16T09:59:02;14.07;;;12.93;;
6197;SDS011;3132;42.622;23.328;2023-07-16T10:01:32;15.57;;;13.05;;
6197;SDS011;3132;42.622;23.328;2023-07-16T10:04:09;14.02;;;12.75;;
6197;SDS011;3132;42.622;23.328;2023-07-16T10:06:51;16.50;;;13.82;;
6197;SDS011;3132;42.622;23.328;2023-07-16T10:14:44;14.10;;;12.73;;
6197;SDS011;3132;42.622;23.328;2023-07-16T10:17:20;14.55;;;13.15;;
6197;SDS011;3132;42.622;23.328;2023-07-16T10:19:51;14.20;;;12.60;;
6197;SDS011;3132;42.622;23.328;2023-07-16T10:22:33;14.00;;;12.63;;
6197;SDS011;3132;42.622;23.328;2023-07-16T10:25:01;13.98;;;12.77;;
6197;SDS011;3132;42.622;23.328;2023-07-16T10:27:27;19.23;;;13.25;;
6197;SDS011;3132;42.622;23.328;2023-07-16T10:29:54;13.90;;;12.60;;
6197;SDS011;3132;42.622;23.328;2023-07-16T10:32:20;14.07;;;12.80;;
6197;SDS011;3132;42.622;23.328;2023-07-16T10:34:46;15.85;;;12.43;;
6197;SDS011;3132;42.622;23.328;2023-07-16T10:37:11;14.70;;;13.15;;
6197;SDS011;3132;42.622;23.328;2023-07-16T10:39:44;13.55;;;12.35;;
6197;SDS011;3132;42.622;23.328;2023-07-16T10:42:13;14.57;;;13.38;;
6197;SDS011;3132;42.622;23.328;2023-07-16T10:44:40;16.02;;;13.23;;
6197;SDS011;3132;42.622;23.328;2023-07-16T10:47:05;15.88;;;13.95;;
6197;SDS011;3132;42.622;23.328;2023-07-16T10:49:31;14.95;;;13.40;;
6197;SDS011;3132;42.622;23.328;2023-07-16T10:52:00;15.40;;;13.48;;
6197;SDS011;3132;42.622;23.328;2023-07-16T10:54:25;14.80;;;13.40;;
6197;SDS011;3132;42.622;23.328;2023-07-16T10:56:51;14.10;;;12.85;;
6197;SDS011;3132;42.622;23.328;2023-07-16T10:59:17;14.38;;;13.05;;
6197;SDS011;3132;42.622;23.328;2023-07-16T11:01:43;16.90;;;14.32;;
6197;SDS011;3132;42.622;23.328;2023-07-16T11:04:09;14.45;;;13.02;;
6197;SDS011;3132;42.622;23.328;2023-07-16T11:06:34;15.75;;;14.00;;
6197;SDS011;3132;42.622;23.328;2023-07-16T11:09:07;13.95;;;12.68;;
6197;SDS011;3132;42.622;23.328;2023-07-16T11:11:33;17.70;;;15.55;;
6197;SDS011;3132;42.622;23.328;2023-07-16T11:13:59;16.70;;;13.20;;
6197;SDS011;3132;42.622;23.328;2023-07-16T11:16:24;15.90;;;14.35;;
6197;SDS011;3132;42.622;23.328;2023-07-16T11:18:50;13.88;;;12.60;;
6197;SDS011;3132;42.622;23.328;2023-07-16T11:21:19;14.55;;;13.35;;
6197;SDS011;3132;42.622;23.328;2023-07-16T11:23:45;16.52;;;14.55;;
6197;SDS011;3132;42.622;23.328;2023-07-16T11:26:10;14.25;;;12.88;;
6197;SDS011;3132;42.622;23.328;2023-07-16T11:28:40;14.75;;;13.45;;
6197;SDS011;3132;42.622;23.328;2023-07-16T11:31:10;14.85;;;13.32;;
6197;SDS011;3132;42.622;23.328;2023-07-16T11:33:43;13.98;;;12.68;;
6197;SDS011;3132;42.622;23.328;2023-07-16T11:36:09;15.15;;;13.05;;
6197;SDS011;3132;42.622;23.328;2023-07-16T11:38:37;14.93;;;13.27;;
6197;SDS011;3132;42.622;23.328;2023-07-16T11:41:03;18.05;;;13.93;;
6197;SDS011;3132;42.622;23.328;2023-07-16T11:43:33;15.25;;;13.55;;
6197;SDS011;3132;42.622;23.328;2023-07-16T11:46:00;15.75;;;13.88;;
6197;SDS011;3132;42.622;23.328;2023-07-16T11:48:26;13.65;;;12.45;;
6197;SDS011;3132;42.622;23.328;2023-07-16T11:50:51;15.02;;;12.45;;
6197;SDS011;3132;42.622;23.328;2023-07-16T11:53:17;15.63;;;13.20;;
6197;SDS011;3132;42.622;23.328;2023-07-16T11:55:42;16.05;;;13.10;;
6197;SDS011;3132;42.622;23.328;2023-07-16T11:58:07;16.70;;;13.30;;
6197;SDS011;3132;42.622;23.328;2023-07-16T12:00:33;14.32;;;12.95;;
6197;SDS011;3132;42.622;23.328;2023-07-16T12:02:58;14.00;;;12.82;;
6197;SDS011;3132;42.622;23.328;2023-07-16T12:05:24;14.63;;;13.23;;
6197;SDS011;3132;42.622;23.328;2023-07-16T12:07:51;14.65;;;12.55;;
6197;SDS011;3132;42.622;23.328;2023-07-16T12:10:16;14.05;;;12.23;;
6197;SDS011;3132;42.622;23.328;2023-07-16T12:12:42;13.77;;;12.45;;
6197;SDS011;3132;42.622;23.328;2023-07-16T12:15:07;14.25;;;12.95;;
6197;SDS011;3132;42.622;23.328;2023-07-16T12:17:33;18.08;;;13.80;;
6197;SDS011;3132;42.622;23.328;2023-07-16T12:19:59;15.07;;;12.70;;
6197;SDS011;3132;42.622;23.328;2023-07-16T12:22:25;13.77;;;12.57;;
6197;SDS011;3132;42.622;23.328;2023-07-16T12:24:52;14.13;;;12.80;;
6197;SDS011;3132;42.622;23.328;2023-07-16T12:27:17;13.10;;;11.95;;
6197;SDS011;3132;42.622;23.328;2023-07-16T12:29:43;16.02;;;12.75;;
6197;SDS011;3132;42.622;23.328;2023-07-16T12:32:09;13.75;;;12.40;;
6197;SDS011;3132;42.622;23.328;2023-07-16T12:34:35;15.85;;;13.68;;
6197;SDS011;3132;42.622;23.328;2023-07-16T12:37:00;14.32;;;12.85;;
6197;SDS011;3132;42.622;23.328;2023-07-16T12:39:25;14.13;;;12.73;;
6197;SDS011;3132;42.622;23.328;2023-07-16T12:41:51;13.43;;;12.20;;
6197;SDS011;3132;42.622;23.328;2023-07-16T12:44:16;18.33;;;12.48;;
6197;SDS011;3132;42.622;23.328;2023-07-16T12:46:41;13.60;;;12.40;;
6197;SDS011;3132;42.622;23.328;2023-07-16T12:49:07;14.00;;;12.60;;
6197;SDS011;3132;42.622;23.328;2023-07-16T12:51:32;13.40;;;12.18;;
6197;SDS011;3132;42.622;23.328;2023-07-16T12:53:58;13.80;;;11.10;;
6197;SDS011;3132;42.622;23.328;2023-07-16T12:56:25;13.40;;;12.20;;
6197;SDS011;3132;42.622;23.328;2023-07-16T12:58:50;15.13;;;11.80;;
6197;SDS011;3132;42.622;23.328;2023-07-16T13:01:16;12.65;;;11.48;;
6197;SDS011;3132;42.622;23.328;2023-07-16T13:03:41;14.00;;;12.45;;
6197;SDS011;3132;42.622;23.328;2023-07-16T13:06:07;12.05;;;11.05;;
6197;SDS011;3132;42.622;23.328;2023-07-16T13:08:32;13.98;;;12.52;;
6197;SDS011;3132;42.622;23.328;2023-07-16T13:10:57;13.40;;;12.00;;
6197;SDS011;3132;42.622;23.328;2023-07-16T13:13:23;13.55;;;12.07;;
6197;SDS011;3132;42.622;23.328;2023-07-16T13:15:48;14.52;;;12.95;;
6197;SDS011;3132;42.622;23.328;2023-07-16T13:18:14;13.70;;;12.30;;
6197;SDS011;3132;42.622;23.328;2023-07-16T13:20:39;12.93;;;11.82;;
6197;SDS011;3132;42.622;23.328;2023-07-16T13:23:05;12.88;;;11.75;;
6197;SDS011;3132;42.622;23.328;2023-07-16T13:25:30;12.68;;;11.60;;
6197;SDS011;3132;42.622;23.328;2023-07-16T13:27:56;12.93;;;11.70;;
6197;SDS011;3132;42.622;23.328;2023-07-16T13:30:22;13.07;;;11.68;;
6197;SDS011;3132;42.622;23.328;2023-07-16T13:32:47;13.82;;;12.43;;
6197;SDS011;3132;42.622;23.328;2023-07-16T13:35:14;18.48;;;12.07;;
6197;SDS011;3132;42.622;23.328;2023-07-16T13:37:41;14.55;;;13.13;;
6197;SDS011;3132;42.622;23.328;2023-07-16T13:40:07;12.65;;;11.43;;
6197;SDS011;3132;42.622;23.328;2023-07-16T13:42:32;13.10;;;11.95;;
6197;SDS011;3132;42.622;23.328;2023-07-16T13:44:58;13.82;;;12.48;;
6197;SDS011;3132;42.622;23.328;2023-07-16T13:47:23;14.52;;;12.88;;
6197;SDS011;3132;42.622;23.328;2023-07-16T13:49:48;13.85;;;12.63;;
6197;SDS011;3132;42.622;23.328;2023-07-16T13:52:14;15.55;;;12.88;;
6197;SDS011;3132;42.622;23.328;2023-07-16T13:54:39;13.40;;;12.20;;
6197;SDS011;3132;42.622;23.328;2023-07-16T13:57:05;13.52;;;12.23;;
6197;SDS011;3132;42.622;23.328;2023-07-16T13:59:30;14.95;;;13.07;;
6197;SDS011;3132;42.622;23.328;2023-07-16T14:01:59;13.88;;;12.57;;
6197;SDS011;3132;42.622;23.328;2023-07-16T14:04:28;15.05;;;13.52;;
6197;SDS011;3132;42.622;23.328;2023-07-16T14:06:54;13.55;;;12.25;;
6197;SDS011;3132;42.622;23.328;2023-07-16T14:09:20;17.75;;;13.50;;
6197;SDS011;3132;42.622;23.328;2023-07-16T14:11:46;15.13;;;13.50;;
6197;SDS011;3132;42.622;23.328;2023-07-16T14:14:16;13.85;;;12.43;;
6197;SDS011;3132;42.622;23.328;2023-07-16T14:16:42;15.25;;;12.90;;
6197;SDS011;3132;42.622;23.328;2023-07-16T14:19:08;15.30;;;12.45;;
6197;SDS011;3132;42.622;23.328;2023-07-16T14:21:34;13.98;;;12.68;;
6197;SDS011;3132;42.622;23.328;2023-07-16T14:24:00;16.58;;;13.10;;
6197;SDS011;3132;42.622;23.328;2023-07-16T14:26:25;14.15;;;12.52;;
6197;SDS011;3132;42.622;23.328;2023-07-16T14:28:50;13.93;;;12.65;;
6197;SDS011;3132;42.622;23.328;2023-07-16T14:31:16;17.85;;;12.52;;
6197;SDS011;3132;42.622;23.328;2023-07-16T14:33:41;14.57;;;13.07;;
6197;SDS011;3132;42.622;23.328;2023-07-16T14:36:07;13.45;;;12.23;;
6197;SDS011;3132;42.622;23.328;2023-07-16T14:38:32;14.73;;;12.50;;
6197;SDS011;3132;42.622;23.328;2023-07-16T14:40:57;14.05;;;12.77;;
6197;SDS011;3132;42.622;23.328;2023-07-16T14:43:23;13.90;;;12.70;;
6197;SDS011;3132;42.622;23.328;2023-07-16T14:45:48;14.38;;;12.80;;
6197;SDS011;3132;42.622;23.328;2023-07-16T14:48:14;17.40;;;13.85;;
6197;SDS011;3132;42.622;23.328;2023-07-16T14:50:39;13.82;;;12.48;;